LSZHHEMA

Guest
Details From LSZH - Zurich
To HEMA - Marsa Alam Intl
Flight Number -
Tags Generated
Created
Modified
Stats Distance 1,802 nm / 3,338 km
Max Altitude 0 ft / 0 m
Waypoints 6
Social Downloads 1
Likes 0
Share VATSIM

Download

Looking for another format? Having issues loading an existing format? Contact us
Advertisement - Login to hide

Notes

Generated

Route

LSZH CHRLE VJOSA PERES IMRUT HEMA

ID Type Via Altitude Latitude Longitude Leg Dist Tot Dist Heading (true) Name
O LSZH APT - 0 ft / 0 m 47.45894˚ 8.53748˚ - 0 nm - -
CHRLE FIX - 0 ft / 0 m 45.34241˚ 12.42722˚ 205 nm 205 nm 127° / 130° -
VJOSA FIX - 0 ft / 0 m 39.98195˚ 20.39139˚ 476 nm 681 nm 130° / 135° -
PERES FIX - 0 ft / 0 m 37.40268˚ 23.66291˚ 217 nm 899 nm 134° / 136° -
IMRUT FIX - 0 ft / 0 m 31.54972˚ 29.56278˚ 456 nm 1356 nm 139° / 142° -
O HEMA APT - 0 ft / 0 m 25.56882˚ 34.57619˚ 445 nm 1802 nm 142° / 145° -

Altitude Profile

Advertisement - Login to hide

Weather


0- 5 10 15 20 25 30 35+ Temperature / ° C

Clouds and Precipitation
Forecast for 2017-12-18 06:00 UTC. Updated 5 minutes ago

Ground ~20,000 ft ~40,000 ft Winds

LSZH

Details ICAO LSZH (ZRH)
Name Zurich
Region Switzerland
Timezone Europe/Zurich (UTC+1.0)
Stats Elevation 1,416 ft / 432 m (AMSL)
Location 47.463489° 8.549964°
Runways 3
Magnetic Variation 2.347° E

METAR

LSZH 180320Z 17004KT 9999 FEW025 BKN100 M02/M03 Q1024 TEMPO SN

Decode

TAF

TAF LSZH 180225Z 1803/1909 VRB03KT 9999 SCT030 BKN090 TX01/1814Z TNM02/1803Z TNM01/1905Z BECMG 1804/1807 2500 SN VV007 PROB40 TEMPO 1806/1810 0800 +SN VV003 BECMG 1810/1813 6000 NSW BKN014 PROB40 1821/1909 4000 BR BKN009

Decode

Departure Runways

ID Width Length Bearing (true) Bearing (mag) Surface Threshold Offset Overrun Length
10 197 ft / 60 m 8,180 ft / 2,493 m 95.98° 93.63° Concrete 0 ft / 0 m 197 ft / 60 m
14 197 ft / 60 m 10,816 ft / 3,297 m 137.30° 134.95° Concrete 492 ft / 150 m 0 ft / 0 m
16 197 ft / 60 m 12,137 ft / 3,699 m 155.00° 152.65° Concrete 0 ft / 0 m 197 ft / 60 m
28 197 ft / 60 m 8,180 ft / 2,493 m 276.01° 273.66° Concrete 0 ft / 0 m 197 ft / 60 m
32 197 ft / 60 m 10,816 ft / 3,297 m 317.32° 314.97° Concrete 0 ft / 0 m 197 ft / 60 m
34 197 ft / 60 m 12,137 ft / 3,699 m 335.01° 332.66° Concrete 1,542 ft / 470 m 0 ft / 0 m

HEMA

Details ICAO HEMA (RMF)
Name MARSA ALAM INTL
Region Egypt
Timezone Africa/Cairo (UTC+2.0)
Stats Elevation 251 ft / 77 m (AMSL)
Location 25.557113° 34.583711°
Runways 1
Magnetic Variation 4.076° E

METAR

HEMA 180200Z 28008KT CAVOK 16/13 Q1018 NOSIG

Decode

TAF

Not found

Destination Runways

ID Width Length Bearing (true) Bearing (mag) Surface Threshold Offset Overrun Length
15 148 ft / 45 m 9,875 ft / 3,010 m 149.89° 145.81° Asphalt 0 ft / 0 m 295 ft / 90 m
33 148 ft / 45 m 9,875 ft / 3,010 m 329.90° 325.82° Asphalt 0 ft / 0 m 295 ft / 90 m